Time;durP1;ratioP1;P1;durP2;ratioP2;P2;SDS_P1;SDS_P2;PMS_P1;PMS_P2;Temp;Humidity;BMP_temperature;BMP_pressure;BME280_temperature;BME280_humidity;BME280_pressure;Samples;Min_cycle;Max_cycle;Signal;HPM_P1;HPM_P2
2022/05/03 00:00:36;;;;;;;;;;;;;;;12.75;63.11;99541.88;3111382;28;20530;-72
2022/05/03 00:02:19;;;;;;;5.10;2.78;;;;;;;12.70;63.44;99538.66;3110678;28;19947;-70
2022/05/03 00:04:03;;;;;;;5.88;3.08;;;;;;;12.70;63.33;99536.91;3110956;28;20571;-71
2022/05/03 00:05:45;;;;;;;7.07;3.47;;;;;;;12.69;63.96;99537.84;3111132;28;20518;-71
2022/05/03 00:07:26;;;;;;;7.32;2.80;;;;;;;12.67;63.91;99541.47;3111298;28;20064;-71
2022/05/03 00:09:06;;;;;;;8.80;2.97;;;;;;;12.64;64.27;99539.88;3110930;28;20076;-71
2022/05/03 00:10:51;;;;;;;7.50;4.15;;;;;;;12.55;64.72;99535.19;3111264;28;20445;-70
2022/05/03 00:12:33;;;;;;;5.10;3.38;;;;;;;12.57;64.42;99537.69;3110820;28;20049;-70
2022/05/03 00:14:13;;;;;;;12.25;3.75;;;;;;;12.44;64.98;99527.94;3110337;28;20049;-71
2022/05/03 00:15:46;;;;;;;6.32;3.90;;;;;;;12.49;65.26;99544.19;3111109;28;20496;-70
2022/05/03 00:17:18;;;;;;;5.70;3.60;;;;;;;12.47;65.44;99543.44;3111661;28;20823;-71
2022/05/03 00:18:51;;;;;;;8.53;4.40;;;;;;;12.44;65.41;99538.38;3110631;28;20099;-70
2022/05/03 00:20:23;;;;;;;8.80;4.72;;;;;;;12.44;65.40;99540.16;3110209;28;20320;-70
2022/05/03 00:21:56;;;;;;;7.53;4.32;;;;;;;12.41;65.77;99533.34;3110093;28;20045;-71
2022/05/03 00:23:28;;;;;;;6.03;4.32;;;;;;;12.39;66.00;99523.91;3110290;28;20111;-71
2022/05/03 00:25:00;;;;;;;8.30;3.92;;;;;;;12.09;66.30;99489.94;3110787;28;20064;-71
2022/05/03 00:26:35;;;;;;;9.85;4.63;;;;;;;12.32;66.72;99526.03;3110931;28;20138;-69
2022/05/03 00:28:08;;;;;;;7.95;4.50;;;;;;;12.35;66.80;99533.69;3110931;28;20053;-70
2022/05/03 00:29:40;;;;;;;8.98;4.60;;;;;;;12.35;67.21;99533.69;3110693;28;20053;-69
2022/05/03 00:31:15;;;;;;;8.35;4.35;;;;;;;12.35;67.13;99531.09;3110989;28;20061;-70
2022/05/03 00:32:49;;;;;;;10.73;4.63;;;;;;;12.32;67.57;99525.19;3110879;28;20124;-71
2022/05/03 00:34:23;;;;;;;13.85;5.38;;;;;;;12.30;67.77;99533.09;3109869;28;20155;-71
2022/05/03 00:35:55;;;;;;;8.80;4.85;;;;;;;12.28;67.65;99532.38;3110686;28;20060;-71
2022/05/03 00:37:28;;;;;;;11.02;5.07;;;;;;;12.30;68.09;99530.50;3110854;28;20095;-71
2022/05/03 00:39:03;;;;;;;8.00;4.68;;;;;;;12.31;68.27;99534.81;3110037;28;20141;-71
2022/05/03 00:40:44;;;;;;;9.20;4.80;;;;;;;12.23;68.93;99513.50;3111304;28;20517;-72
2022/05/03 00:42:20;;;;;;;8.90;4.75;;;;;;;12.32;69.01;99536.47;3111644;28;20057;-70
2022/05/03 00:44:03;;;;;;;10.23;5.55;;;;;;;12.34;68.58;99534.63;3111076;28;20978;-71
2022/05/03 00:45:39;;;;;;;9.82;5.35;;;;;;;12.35;69.06;99532.84;3110609;28;20542;-71
2022/05/03 00:47:16;;;;;;;9.40;5.10;;;;;;;12.36;68.85;99530.13;3110013;28;20106;-72
2022/05/03 00:49:13;;;;;;;7.85;5.00;;;;;;;12.35;68.41;99531.09;3111090;28;20083;-71
2022/05/03 00:50:54;;;;;;;12.48;4.65;;;;;;;12.33;68.86;99535.53;3110509;28;20057;-71
2022/05/03 00:52:31;;;;;;;8.50;4.70;;;;;;;12.31;68.97;99532.19;3110971;28;20060;-71
2022/05/03 00:54:18;;;;;;;8.02;4.75;;;;;;;12.31;69.01;99526.13;3109745;28;20069;-71
2022/05/03 00:56:20;;;;;;;8.18;4.85;;;;;;;12.29;68.94;99534.03;3103947;28;20092;-72
2022/05/03 00:58:08;;;;;;;11.48;5.43;;;;;;;12.22;69.15;99527.50;3111232;28;20615;-71
2022/05/03 01:00:05;;;;;;;9.40;5.22;;;;;;;12.21;69.20;99526.63;3110956;28;20558;-71
2022/05/03 01:01:45;;;;;;;10.95;5.13;;;;;;;12.01;68.88;99501.66;3103647;28;20053;-71
2022/05/03 01:03:26;;;;;;;6.80;4.60;;;;;;;12.21;69.14;99528.41;3109873;28;20064;-71
2022/05/03 01:05:09;;;;;;;9.75;5.25;;;;;;;12.18;69.28;99528.56;3097968;28;20053;-72
2022/05/03 01:06:54;;;;;;;10.05;4.70;;;;;;;12.15;69.50;99519.16;3108727;28;20144;-72
2022/05/03 01:08:34;;;;;;;12.18;4.93;;;;;;;12.12;69.64;99519.31;3110727;28;20081;-72
2022/05/03 01:10:10;;;;;;;11.32;5.63;;;;;;;12.04;69.32;99514.53;3110888;28;20107;-72
2022/05/03 01:11:48;;;;;;;10.70;5.22;;;;;;;12.08;69.83;99523.03;3111273;28;20518;-71
2022/05/03 01:13:30;;;;;;;10.25;5.47;;;;;;;12.05;70.01;99526.66;3110339;28;20088;-71
2022/05/03 01:15:10;;;;;;;10.60;5.93;;;;;;;12.02;70.13;99521.59;3110199;28;20444;-71
2022/05/03 01:16:56;;;;;;;12.38;5.85;;;;;;;12.02;70.24;99523.38;3110158;28;20146;-71
2022/05/03 01:18:35;;;;;;;11.95;5.70;;;;;;;11.84;70.31;99497.34;3098129;28;20089;-71
2022/05/03 01:20:07;;;;;;;12.63;5.53;;;;;;;12.00;70.55;99525.22;3108779;28;20054;-71
2022/05/03 01:22:00;;;;;;;11.10;6.10;;;;;;;11.91;70.56;99503.09;3112127;28;20084;-71
2022/05/03 01:24:11;;;;;;;11.82;5.75;;;;;;;11.98;70.59;99519.25;3113484;28;20049;-71
2022/05/03 01:25:53;;;;;;;12.57;6.40;;;;;;;11.95;70.38;99520.28;3117104;28;20140;-72
2022/05/03 01:27:46;;;;;;;11.88;5.97;;;;;;;11.93;70.65;99516.06;3122225;28;20053;-73
2022/05/03 01:29:29;;;;;;;11.02;5.20;;;;;;;11.93;70.88;99516.06;3122274;28;20107;-72
2022/05/03 01:31:06;;;;;;;11.10;5.85;;;;;;;11.89;71.05;99510.19;3122078;28;20045;-70
2022/05/03 01:32:43;;;;;;;10.30;6.25;;;;;;;11.91;71.18;99516.13;3122508;28;20064;-71
2022/05/03 01:34:19;;;;;;;10.82;6.07;;;;;;;11.89;70.92;99515.41;3122364;28;20091;-71
2022/05/03 01:35:57;;;;;;;9.07;5.32;;;;;;;11.85;71.32;99524.31;3121373;28;20053;-72
2022/05/03 01:37:48;;;;;;;13.93;6.05;;;;;;;11.84;71.22;99522.59;3115146;28;20102;-72
2022/05/03 01:39:32;;;;;;;10.23;5.95;;;;;;;11.78;71.63;99515.09;3121895;28;20072;-72
2022/05/03 01:41:14;;;;;;;11.70;6.18;;;;;;;11.70;71.32;99504.25;3122178;28;20049;-72
2022/05/03 01:43:01;;;;;;;14.05;6.32;;;;;;;11.78;71.58;99521.16;3122147;28;20053;-72
2022/05/03 01:44:40;;;;;;;9.05;5.70;;;;;;;11.78;71.59;99517.72;3121866;28;20049;-73
2022/05/03 01:46:16;;;;;;;11.05;5.90;;;;;;;11.76;71.92;99511.72;3122088;28;20046;-73
2022/05/03 01:48:03;;;;;;;10.38;5.72;;;;;;;11.77;71.80;99514.28;3122033;28;20123;-72
2022/05/03 01:51:45;;;;;;;9.95;6.35;;;;;;;11.78;71.79;99517.72;3122029;28;20450;-71
2022/05/03 01:53:22;;;;;;;9.98;4.90;;;;;;;11.76;71.87;99522.16;3125854;28;20063;-71
2022/05/03 01:55:16;;;;;;;10.23;6.03;;;;;;;11.75;71.59;99523.09;3122034;28;20458;-70
2022/05/03 01:56:59;;;;;;;11.13;5.60;;;;;;;11.56;71.83;99490.16;3130205;28;20097;-70
2022/05/03 01:58:35;;;;;;;9.77;5.10;;;;;;;11.75;71.73;99523.09;3122362;28;20077;-71
2022/05/03 02:00:10;;;;;;;13.88;6.53;;;;;;;11.69;71.78;99515.63;3123291;28;20050;-70
2022/05/03 02:01:53;;;;;;;10.02;5.50;;;;;;;11.73;72.13;99520.56;3121607;28;20111;-70
2022/05/03 02:03:30;;;;;;;10.30;5.97;;;;;;;11.73;72.15;99524.94;3127391;28;20136;-71
2022/05/03 02:05:06;;;;;;;11.02;5.57;;;;;;;11.68;72.36;99516.50;3121904;28;20057;-70
2022/05/03 02:06:51;;;;;;;10.35;5.93;;;;;;;11.76;72.38;99530.00;3118617;28;20054;-70
2022/05/03 02:08:25;;;;;;;11.18;5.63;;;;;;;11.72;72.20;99521.50;3121933;28;20057;-71
2022/05/03 02:10:05;;;;;;;11.70;5.60;;;;;;;11.76;72.50;99530.00;3122875;28;20045;-70
2022/05/03 02:11:49;;;;;;;11.95;5.95;;;;;;;11.74;72.25;99526.63;3121718;28;20407;-70
2022/05/03 02:13:29;;;;;;;;;;;;;;;11.75;72.28;99533.53;3123603;28;20080;-69
2022/05/03 02:15:04;;;;;;;9.85;5.68;;;;;;;11.44;72.19;99485.63;3121783;28;20453;-70
2022/05/03 02:16:43;;;;;;;9.95;4.82;;;;;;;11.73;72.24;99528.38;3125116;28;20050;-70
2022/05/03 02:18:24;;;;;;;10.75;5.57;;;;;;;11.70;72.46;99525.09;3121827;28;20053;-70
2022/05/03 02:20:11;;;;;;;8.73;5.65;;;;;;;11.69;72.40;99526.03;3125796;28;20685;-70
2022/05/03 02:21:53;;;;;;;10.88;5.28;;;;;;;11.70;72.48;99525.09;3125084;28;20072;-70
2022/05/03 02:23:41;;;;;;;13.93;6.03;;;;;;;11.71;72.53;99532.00;3127205;28;20481;-71
2022/05/03 02:25:20;;;;;;;10.35;5.07;;;;;;;11.71;72.57;99532.00;3123911;28;20053;-71
2022/05/03 02:27:03;;;;;;;11.52;5.60;;;;;;;11.34;72.64;99469.63;3127647;28;20427;-71
2022/05/03 02:28:40;;;;;;;12.50;5.70;;;;;;;11.71;72.98;99532.00;3123567;28;20442;-70
2022/05/03 02:30:16;;;;;;;9.80;5.60;;;;;;;11.71;72.72;99532.88;3127271;28;20135;-70
2022/05/03 02:31:54;;;;;;;12.25;4.90;;;;;;;11.72;72.80;99533.72;3124955;28;20061;-71
2022/05/03 02:33:30;;;;;;;9.65;5.82;;;;;;;11.69;72.85;99526.88;3115250;28;20053;-71
2022/05/03 02:35:05;;;;;;;13.68;6.43;;;;;;;11.73;72.91;99536.22;3121669;28;20065;-70
2022/05/03 02:36:46;;;;;;;10.63;5.40;;;;;;;11.74;73.04;99532.69;3116375;28;20060;-70
2022/05/03 02:38:23;;;;;;;12.55;5.53;;;;;;;11.59;73.19;99515.25;3126070;28;20438;-70
2022/05/03 02:40:00;;;;;;;12.73;6.25;;;;;;;11.72;73.12;99539.75;3123068;28;20054;-72
2022/05/03 02:41:36;;;;;;;9.50;5.97;;;;;;;11.74;73.25;99540.53;3121516;28;20049;-70
2022/05/03 02:43:09;;;;;;;10.45;5.18;;;;;;;11.48;73.11;99500.19;3123035;28;20060;-71
2022/05/03 02:44:42;;;;;;;9.13;5.03;;;;;;;11.73;73.30;99543.19;3113471;28;20052;-70
2022/05/03 02:46:28;;;;;;;13.18;5.90;;;;;;;11.66;73.21;99534.88;3121377;28;20434;-70
2022/05/03 02:48:13;;;;;;;12.70;5.47;;;;;;;11.65;73.17;99529.72;3112523;28;20060;-71
2022/05/03 02:49:58;;;;;;;9.73;5.43;;;;;;;11.72;73.32;99542.38;3122131;28;20049;-71
2022/05/03 02:51:40;;;;;;;10.10;6.18;;;;;;;11.71;73.31;99551.13;3129116;28;20045;-69
2022/05/03 02:53:21;;;;;;;10.43;6.40;;;;;;;11.68;73.31;99546.03;3121168;28;20057;-73
2022/05/03 02:55:07;;;;;;;13.55;5.60;;;;;;;11.66;73.14;99541.84;3121870;28;20057;-73
2022/05/03 02:56:46;;;;;;;10.98;6.78;;;;;;;11.67;73.47;99553.97;3121520;28;20136;-71
2022/05/03 02:58:35;;;;;;;8.20;6.00;;;;;;;11.68;73.54;99553.03;3108940;28;20494;-72
2022/05/03 03:02:12;;;;;;;11.05;6.72;;;;;;;11.68;74.51;99560.84;3120961;28;20049;-71
2022/05/03 03:04:04;;;;;;;10.38;6.53;;;;;;;11.64;74.15;99557.56;3121110;28;20142;-72
2022/05/03 03:05:42;;;;;;;13.73;6.18;;;;;;;11.67;74.28;99567.84;3120455;28;20553;-74
2022/05/03 03:07:18;;;;;;;11.68;6.55;;;;;;;11.66;74.58;99563.56;3121361;28;20115;-74
2022/05/03 03:08:53;;;;;;;11.38;6.07;;;;;;;11.50;74.49;99539.22;3121432;28;20046;-72
2022/05/03 03:10:32;;;;;;;9.27;5.88;;;;;;;11.70;74.56;99566.84;3121078;28;20061;-74
2022/05/03 03:12:06;;;;;;;10.88;5.72;;;;;;;11.72;74.60;99570.22;3121171;28;20059;-74
2022/05/03 03:14:00;;;;;;;13.23;6.38;;;;;;;11.71;74.15;99572.00;3121203;28;20049;-73
2022/05/03 03:15:40;;;;;;;10.18;5.80;;;;;;;11.75;74.33;99576.13;3121287;28;20104;-73
2022/05/03 03:17:16;;;;;;;10.82;6.07;;;;;;;11.76;74.00;99577.78;3121047;28;20106;-71
2022/05/03 03:18:49;;;;;;;10.05;5.85;;;;;;;11.61;74.42;99553.38;3121227;28;20049;-71
2022/05/03 03:20:25;;;;;;;11.65;6.82;;;;;;;11.72;74.36;99562.41;3120981;28;20045;-72
2022/05/03 03:22:01;;;;;;;10.60;6.05;;;;;;;11.77;74.46;99573.41;3121037;28;20049;-72
2022/05/03 03:23:36;;;;;;;9.73;6.28;;;;;;;11.78;74.71;99586.38;3118191;28;20077;-72
2022/05/03 03:25:09;;;;;;;10.40;6.15;;;;;;;11.79;74.97;99589.81;3110837;28;20053;-70
2022/05/03 03:26:44;;;;;;;11.10;6.30;;;;;;;11.72;75.28;99571.06;3110766;28;20111;-70
2022/05/03 03:28:21;;;;;;;12.38;6.55;;;;;;;11.68;75.46;99566.91;3109649;28;20522;-71
2022/05/03 03:29:57;;;;;;;11.02;6.80;;;;;;;11.78;75.89;99590.75;3099060;28;20054;-71
2022/05/03 03:31:31;;;;;;;13.40;6.72;;;;;;;11.75;75.58;99589.16;3110308;28;20505;-70
2022/05/03 03:33:07;;;;;;;10.93;6.38;;;;;;;11.79;75.79;99593.28;3110824;28;20085;-70
2022/05/03 03:34:43;;;;;;;11.43;6.90;;;;;;;11.79;75.79;99600.25;3111157;28;20111;-71
2022/05/03 03:36:18;;;;;;;12.50;7.15;;;;;;;11.74;75.89;99590.09;3110409;28;20056;-70
2022/05/03 03:37:52;;;;;;;13.13;6.65;;;;;;;11.75;75.47;99583.09;3110563;28;20057;-73
2022/05/03 03:39:23;;;;;;;;;;;;;;;11.79;76.16;99601.09;3111068;28;20080;-73
2022/05/03 03:40:56;;;;;;;10.00;6.28;;;;;;;11.75;75.91;99590.94;3110697;28;20658;-73
2022/05/03 03:42:29;;;;;;;11.88;7.30;;;;;;;11.69;76.20;99591.25;3110656;28;20064;-71
2022/05/03 03:44:05;;;;;;;11.50;7.35;;;;;;;11.77;76.60;99599.50;3110112;28;20080;-73
2022/05/03 03:45:37;;;;;;;13.82;8.02;;;;;;;11.79;76.74;99605.47;3110850;28;20057;-73
2022/05/03 03:47:10;;;;;;;13.77;7.10;;;;;;;11.81;76.45;99611.47;3101546;28;20053;-73
2022/05/03 03:48:44;;;;;;;11.43;7.10;;;;;;;11.82;76.32;99600.09;3111096;28;20088;-74
2022/05/03 03:50:16;;;;;;;13.02;6.68;;;;;;;11.82;75.97;99605.31;3110251;28;20115;-74
2022/05/03 03:51:52;;;;;;;11.55;7.28;;;;;;;11.82;75.66;99607.94;3100575;28;20050;-74
2022/05/03 03:53:24;;;;;;;11.77;5.88;;;;;;;11.83;75.66;99609.59;3110394;28;20060;-73
2022/05/03 03:54:58;;;;;;;11.43;6.57;;;;;;;11.84;76.01;99611.31;3111016;28;20107;-72
2022/05/03 03:56:31;;;;;;;12.00;6.43;;;;;;;11.85;75.67;99618.22;3110416;28;20316;-72
2022/05/03 03:58:03;;;;;;;10.73;6.90;;;;;;;11.86;75.65;99614.72;3110453;28;20053;-72
2022/05/03 03:59:36;;;;;;;10.40;6.60;;;;;;;11.81;76.37;99606.25;3111441;28;20060;-73
2022/05/03 04:01:09;;;;;;;15.07;7.30;;;;;;;11.80;76.81;99623.69;3111864;28;20064;-72
2022/05/03 04:02:43;;;;;;;11.23;7.20;;;;;;;11.78;76.46;99622.06;3110538;28;20511;-73
2022/05/03 04:04:17;;;;;;;14.77;7.82;;;;;;;11.77;77.18;99620.38;3110381;28;20431;-73
2022/05/03 04:05:50;;;;;;;14.77;7.20;;;;;;;11.76;77.22;99626.50;3106563;28;20426;-72
2022/05/03 04:07:23;;;;;;;13.70;7.30;;;;;;;11.77;77.47;99625.59;3100718;28;20473;-73
2022/05/03 04:08:55;;;;;;;12.38;7.30;;;;;;;11.77;77.32;99628.19;3111505;28;20061;-73
2022/05/03 04:10:28;;;;;;;13.25;7.07;;;;;;;11.78;77.50;99628.13;3110835;28;20251;-73
2022/05/03 04:12:04;;;;;;;10.35;6.22;;;;;;;11.78;77.06;99622.06;3111270;28;20088;-74
2022/05/03 04:13:36;;;;;;;9.90;6.57;;;;;;;11.79;76.63;99627.19;3110375;28;20484;-74
2022/05/03 04:15:09;;;;;;;14.60;7.38;;;;;;;11.75;76.80;99610.03;3110256;28;20127;-73
2022/05/03 04:16:42;;;;;;;16.75;8.10;;;;;;;11.81;77.13;99621.91;3110211;28;20310;-74
2022/05/03 04:18:16;;;;;;;12.55;7.65;;;;;;;11.82;77.64;99616.59;3109993;28;20533;-74
2022/05/03 04:19:49;;;;;;;16.08;7.45;;;;;;;11.84;77.43;99621.75;3110250;28;20057;-74
2022/05/03 04:21:21;;;;;;;14.70;7.40;;;;;;;11.83;77.49;99618.28;3110999;28;20198;-74
2022/05/03 04:22:54;;;;;;;15.75;8.52;;;;;;;11.60;77.66;99582.16;3110721;28;20111;-73
2022/05/03 04:24:27;;;;;;;11.18;7.00;;;;;;;11.78;77.93;99614.25;3110975;28;20046;-74
2022/05/03 04:25:59;;;;;;;12.45;6.80;;;;;;;11.73;78.30;99624.91;3111132;28;20054;-74
2022/05/03 04:27:31;;;;;;;9.82;6.10;;;;;;;11.46;78.03;99569.81;3110929;28;20155;-73
2022/05/03 04:29:04;;;;;;;10.50;6.47;;;;;;;11.74;78.09;99623.13;3109759;28;20041;-74
2022/05/03 04:30:36;;;;;;;;;;;;;;;11.73;77.84;99624.06;3110959;28;20057;-73
2022/05/03 04:32:09;;;;;;;12.60;8.15;;;;;;;11.74;77.99;99629.22;3110367;28;19932;-74
2022/05/03 04:33:42;;;;;;;10.90;7.63;;;;;;;11.76;77.98;99623.91;3111255;28;20103;-73
2022/05/03 04:35:14;;;;;;;12.87;7.03;;;;;;;11.75;78.02;99630.06;3111101;28;20111;-73
2022/05/03 04:36:46;;;;;;;15.68;7.43;;;;;;;11.74;78.10;99625.75;3110791;28;20536;-73
2022/05/03 04:38:20;;;;;;;16.00;8.18;;;;;;;11.45;77.98;99578.59;3110237;28;20088;-72
2022/05/03 04:39:52;;;;;;;12.02;6.82;;;;;;;11.83;77.96;99633.09;3111144;28;20049;-73
2022/05/03 04:41:24;;;;;;;9.52;5.63;;;;;;;11.60;77.93;99605.63;3110398;28;20053;-73
2022/05/03 04:42:57;;;;;;;10.15;5.85;;;;;;;11.79;78.03;99642.00;3111011;28;20076;-72
2022/05/03 04:44:29;;;;;;;11.02;5.65;;;;;;;11.74;77.66;99638.78;3110080;28;20057;-73
2022/05/03 04:46:01;;;;;;;9.98;5.55;;;;;;;11.72;77.40;99645.88;3110936;28;20061;-73
2022/05/03 04:47:34;;;;;;;9.40;5.90;;;;;;;11.48;77.77;99603.66;3109178;28;20053;-72
2022/05/03 04:49:06;;;;;;;11.77;6.00;;;;;;;11.71;77.83;99649.38;3110342;28;20064;-73
2022/05/03 04:50:38;;;;;;;9.40;4.78;;;;;;;11.71;77.44;99649.38;3110602;28;20084;-73
2022/05/03 04:52:10;;;;;;;12.13;6.20;;;;;;;11.55;77.10;99624.09;3109879;28;20055;-73
2022/05/03 04:53:45;;;;;;;8.65;4.72;;;;;;;11.72;76.91;99649.31;3098418;28;20121;-74
2022/05/03 04:55:17;;;;;;;8.15;5.60;;;;;;;11.72;76.73;99645.88;3107138;28;20244;-73
2022/05/03 04:56:52;;;;;;;14.13;7.00;;;;;;;11.60;76.66;99627.31;3112274;28;20053;-71
2022/05/03 04:58:25;;;;;;;11.52;7.07;;;;;;;11.61;76.72;99635.97;3112289;28;20071;-72
2022/05/03 04:59:57;;;;;;;10.25;7.03;;;;;;;11.61;77.19;99639.44;3112869;28;20208;-72
2022/05/03 05:01:30;;;;;;;8.25;5.13;;;;;;;11.61;77.48;99652.47;3112295;28;20603;-72
2022/05/03 05:03:02;;;;;;;6.47;4.65;;;;;;;11.46;75.95;99652.44;3113668;28;20061;-72
2022/05/03 05:04:34;;;;;;;4.25;2.92;;;;;;;11.15;75.21;99618.34;3112677;28;20057;-71
2022/05/03 05:06:06;;;;;;;4.28;2.25;;;;;;;11.24;74.64;99652.66;3112935;28;21172;-71
2022/05/03 05:07:39;;;;;;;6.28;3.22;;;;;;;11.25;74.43;99656.97;3103745;28;20520;-72
2022/05/03 05:09:13;;;;;;;7.43;3.17;;;;;;;11.27;74.58;99658.59;3112106;28;20068;-72
2022/05/03 05:10:44;;;;;;;3.53;2.13;;;;;;;11.30;73.97;99652.38;3112315;28;20053;-72
2022/05/03 05:12:16;;;;;;;3.95;2.35;;;;;;;11.19;73.51;99626.00;3112484;28;20156;-72
2022/05/03 05:13:48;;;;;;;6.60;2.03;;;;;;;11.37;73.42;99658.94;3112465;28;20141;-72
2022/05/03 05:15:23;;;;;;;5.68;2.17;;;;;;;11.39;72.80;99655.34;3112637;28;20419;-71
2022/05/03 05:16:55;;;;;;;4.85;1.85;;;;;;;11.43;72.40;99658.63;3113382;28;20095;-73
2022/05/03 05:18:28;;;;;;;2.35;1.95;;;;;;;11.38;72.18;99650.19;3112132;28;20241;-72
2022/05/03 05:20:01;;;;;;;5.35;2.42;;;;;;;11.43;72.75;99661.25;3112645;28;20621;-72
2022/05/03 05:21:33;;;;;;;5.07;2.65;;;;;;;11.44;72.67;99662.94;3116214;28;20140;-71
2022/05/03 05:23:06;;;;;;;4.97;3.17;;;;;;;11.48;72.80;99661.03;3121867;28;20053;-71
2022/05/03 05:24:39;;;;;;;6.75;2.90;;;;;;;11.50;72.76;99659.16;3122652;28;20063;-73
2022/05/03 05:26:11;;;;;;;8.80;3.47;;;;;;;11.51;72.24;99656.50;3122133;28;20049;-73
2022/05/03 05:27:42;;;;;;;5.95;3.15;;;;;;;11.54;72.40;99666.75;3122201;28;20080;-72
2022/05/03 05:29:14;;;;;;;6.65;3.45;;;;;;;11.49;72.42;99647.06;3122226;28;20049;-72
2022/05/03 05:30:46;;;;;;;6.18;3.70;;;;;;;11.60;72.32;99663.84;3122428;28;20076;-72
2022/05/03 05:32:18;;;;;;;35.90;21.38;;;;;;;11.64;73.16;99666.28;3122316;28;20053;-72
2022/05/03 05:33:50;;;;;;;19.67;10.63;;;;;;;11.48;73.33;99642.78;3122108;28;20049;-73
2022/05/03 05:35:21;;;;;;;18.10;5.30;;;;;;;11.58;73.58;99663.06;3122262;28;20053;-71
2022/05/03 05:36:53;;;;;;;11.38;3.50;;;;;;;11.55;73.82;99667.59;3122620;28;20057;-72
2022/05/03 05:38:25;;;;;;;7.38;3.33;;;;;;;11.46;73.39;99655.88;3122477;28;20045;-72
2022/05/03 05:39:59;;;;;;;9.32;3.42;;;;;;;11.43;73.46;99666.47;3121953;28;20061;-73
2022/05/03 05:41:31;;;;;;;10.95;3.47;;;;;;;11.39;73.35;99670.16;3122320;28;20084;-73
2022/05/03 05:43:04;;;;;;;8.05;3.20;;;;;;;11.13;73.82;99633.19;3113380;28;20060;-73
2022/05/03 05:44:36;;;;;;;9.55;4.30;;;;;;;11.15;73.61;99654.81;3122080;28;20042;-73
2022/05/03 05:46:08;;;;;;;5.47;3.87;;;;;;;11.25;74.25;99675.22;3122329;28;20049;-73
2022/05/03 05:47:40;;;;;;;6.03;3.55;;;;;;;11.15;74.39;99665.25;3122178;28;20104;-73
2022/05/03 05:49:12;;;;;;;5.28;3.08;;;;;;;11.18;74.49;99673.81;3122206;28;20061;-73
2022/05/03 05:50:44;;;;;;;6.97;3.70;;;;;;;11.16;74.38;99682.56;3121327;28;20067;-73
2022/05/03 05:54:06;;;;;;;7.10;3.85;;;;;;;11.16;74.75;99681.72;3122461;28;20552;-74
2022/05/03 05:55:38;;;;;;;5.78;3.58;;;;;;;11.12;75.07;99673.22;3123727;28;20049;-72
2022/05/03 05:57:11;;;;;;;7.93;4.13;;;;;;;11.09;75.07;99673.38;3120440;28;20049;-71
2022/05/03 05:58:42;;;;;;;10.87;4.83;;;;;;;11.06;75.58;99675.25;3120491;28;20559;-73
2022/05/03 06:00:15;;;;;;;10.77;5.18;;;;;;;10.95;75.81;99664.56;3119181;28;20103;-73
2022/05/03 06:01:49;;;;;;;9.02;5.13;;;;;;;10.98;76.54;99683.47;3110673;28;20058;-73
2022/05/03 06:03:22;;;;;;;10.30;5.13;;;;;;;10.95;77.02;99688.00;3119187;28;20053;-73
2022/05/03 06:04:53;;;;;;;8.98;6.03;;;;;;;10.91;77.28;99682.94;3119135;28;20084;-70
2022/05/03 06:06:24;;;;;;;9.82;5.55;;;;;;;10.74;77.35;99659.47;3121458;28;20057;-69
2022/05/03 06:07:56;;;;;;;11.35;5.57;;;;;;;10.93;77.68;99685.44;3120500;28;20057;-69
2022/05/03 06:09:28;;;;;;;9.77;5.10;;;;;;;10.94;77.35;99684.53;3121782;28;20052;-71
2022/05/03 06:11:02;;;;;;;9.20;5.10;;;;;;;10.95;77.20;99688.00;3121118;28;20057;-75
2022/05/03 06:12:33;;;;;;;;;;;;;;;10.93;77.16;99695.88;3116635;28;20049;-72
2022/05/03 06:14:05;;;;;;;6.80;4.68;;;;;;;10.82;77.20;99677.31;3121646;28;19995;-74
2022/05/03 06:15:37;;;;;;;7.30;5.05;;;;;;;10.73;77.35;99657.75;3123364;28;20080;-73
2022/05/03 06:17:09;;;;;;;9.95;5.30;;;;;;;10.92;77.10;99694.19;3119933;28;20111;-71
2022/05/03 06:18:41;;;;;;;7.63;5.35;;;;;;;10.90;77.38;99690.81;3119181;28;20061;-72
2022/05/03 06:20:13;;;;;;;13.75;8.85;;;;;;;10.83;77.16;99666.00;3131207;28;20533;-70
2022/05/03 06:21:45;;;;;;;10.90;5.28;;;;;;;10.95;77.09;99688.84;3119951;28;20132;-72
2022/05/03 06:23:17;;;;;;;10.85;5.13;;;;;;;10.86;76.79;99676.25;3122396;28;20119;-70
2022/05/03 06:24:49;;;;;;;12.52;5.53;;;;;;;10.96;77.15;99692.28;3121402;28;20107;-76
2022/05/03 06:26:22;;;;;;;13.88;6.10;;;;;;;10.76;77.04;99667.19;3117914;28;20096;-71
2022/05/03 06:27:54;;;;;;;46.42;27.20;;;;;;;10.99;77.22;99699.94;3112889;28;20050;-70
2022/05/03 06:29:26;;;;;;;17.50;11.02;;;;;;;11.05;77.27;99697.03;3115184;28;20506;-68
2022/05/03 06:30:58;;;;;;;11.80;5.45;;;;;;;10.99;76.98;99687.75;3122756;28;20091;-71
2022/05/03 06:32:30;;;;;;;31.38;17.98;;;;;;;11.09;76.77;99699.44;3112297;28;20107;-71
2022/05/03 06:34:02;;;;;;;23.98;11.45;;;;;;;11.14;76.82;99700.03;3109719;28;20054;-67
2022/05/03 06:35:34;;;;;;;8.95;5.25;;;;;;;11.13;76.78;99700.97;3121771;28;20045;-68
2022/05/03 06:37:06;;;;;;;10.95;5.57;;;;;;;11.08;76.78;99696.88;3116876;28;20046;-68
2022/05/03 06:38:38;;;;;;;8.82;4.15;;;;;;;11.10;77.29;99701.13;3115123;28;20490;-69
2022/05/03 06:40:11;;;;;;;10.18;4.80;;;;;;;10.93;77.11;99698.47;3121548;28;20053;-69
2022/05/03 06:41:44;;;;;;;9.23;5.03;;;;;;;10.78;77.34;99696.63;3124185;28;20099;-65
2022/05/03 06:43:16;;;;;;;111.18;59.88;;;;;;;10.88;77.78;99710.88;3123838;28;20048;-67
2022/05/03 06:44:48;;;;;;;50.20;22.92;;;;;;;10.64;77.48;99679.88;3128823;28;20053;-66
2022/05/03 06:46:21;;;;;;;9.77;5.93;;;;;;;10.84;77.31;99704.97;3121825;28;20057;-67
2022/05/03 06:47:53;;;;;;;14.35;5.68;;;;;;;10.59;77.62;99675.78;3119691;28;20439;-66
2022/05/03 06:49:25;;;;;;;9.95;5.38;;;;;;;10.82;77.49;99718.97;3105929;28;20054;-67
2022/05/03 06:50:57;;;;;;;10.80;4.55;;;;;;;10.78;77.20;99722.66;3129732;28;20059;-68
2022/05/03 06:52:28;;;;;;;9.52;4.57;;;;;;;10.72;77.58;99712.53;3120881;28;20482;-70
2022/05/03 06:54:01;;;;;;;12.18;4.88;;;;;;;10.74;77.58;99715.88;3118902;28;20088;-71
2022/05/03 06:55:33;;;;;;;7.20;4.55;;;;;;;10.70;77.96;99723.84;3121172;28;20049;-73
2022/05/03 06:57:06;;;;;;;7.47;4.20;;;;;;;10.65;78.22;99720.63;3120279;28;20061;-73
2022/05/03 06:58:39;;;;;;;;;;;;;;;10.63;78.39;99722.47;3121494;28;20061;-71
2022/05/03 07:00:12;;;;;;;7.75;4.05;;;;;;;10.60;78.50;99721.75;3118285;28;19931;-69
2022/05/03 07:01:44;;;;;;;10.90;4.82;;;;;;;10.55;78.87;99718.53;3120307;28;20053;-70
2022/05/03 07:03:17;;;;;;;8.88;4.07;;;;;;;10.52;78.74;99718.66;3119797;28;20049;-69
2022/05/03 07:04:49;;;;;;;9.50;4.00;;;;;;;10.48;79.27;99715.38;3119932;28;20053;-69
2022/05/03 07:06:21;;;;;;;8.13;4.05;;;;;;;10.43;79.68;99725.97;3121004;28;20103;-69
2022/05/03 07:07:53;;;;;;;14.13;4.82;;;;;;;10.39;79.79;99718.38;3120412;28;20093;-68
2022/05/03 07:09:25;;;;;;;9.30;4.70;;;;;;;10.35;80.30;99722.91;3119625;28;20060;-69
2022/05/03 07:10:58;;;;;;;5.68;3.25;;;;;;;10.34;80.48;99712.53;3121309;28;20049;-69
2022/05/03 07:12:32;;;;;;;8.13;4.03;;;;;;;10.01;80.52;99674.94;3121056;28;20124;-68
2022/05/03 07:14:04;;;;;;;5.85;3.63;;;;;;;10.23;80.67;99716.47;3118728;28;20045;-69
2022/05/03 07:15:36;;;;;;;7.93;4.10;;;;;;;10.19;81.00;99714.88;3121276;28;20514;-69
2022/05/03 07:17:08;;;;;;;9.45;4.32;;;;;;;10.14;81.47;99705.59;3121280;28;20059;-68
2022/05/03 07:22:46;;;;;;;6.78;4.43;;;;;;;10.17;82.80;99714.09;3113284;28;20535;-79
2022/05/03 07:24:18;;;;;;;7.53;4.13;;;;;;;10.14;82.73;99716.84;3119204;28;20049;-74
2022/05/03 07:25:50;;;;;;;7.07;4.18;;;;;;;10.14;82.97;99722.03;3121025;28;20049;-76
2022/05/03 07:27:22;;;;;;;10.68;4.40;;;;;;;10.15;82.68;99726.34;3121095;28;20103;-72
2022/05/03 07:28:58;;;;;;;11.93;4.25;;;;;;;9.76;82.75;99667.38;3117889;28;20053;-77
2022/05/03 07:30:34;;;;;;;8.02;4.00;;;;;;;10.05;82.99;99721.63;3120416;28;20049;-76
2022/05/03 07:32:07;;;;;;;5.53;3.58;;;;;;;10.08;82.92;99730.13;3120258;28;20053;-80
2022/05/03 07:33:39;;;;;;;8.75;3.72;;;;;;;10.00;82.92;99717.47;3120819;28;20103;-75
2022/05/03 07:35:15;;;;;;;4.18;3.05;;;;;;;10.01;82.50;99718.31;3119778;28;20053;-79
2022/05/03 07:36:47;;;;;;;4.25;2.53;;;;;;;10.06;82.57;99726.78;3120759;28;20489;-79
2022/05/03 07:38:19;;;;;;;7.57;2.75;;;;;;;9.86;81.89;99703.38;3120525;28;20050;-75